createdAt,value
2019-03-13T00:00:37.029Z,9.50
2019-03-13T00:02:58.627Z,9.50
2019-03-13T00:05:19.877Z,9.40
2019-03-13T00:07:41.161Z,9.30
2019-03-13T00:10:05.167Z,9.20
2019-03-13T00:12:26.360Z,9.10
2019-03-13T00:14:47.690Z,8.90
2019-03-13T00:17:08.880Z,8.80
2019-03-13T00:19:30.082Z,8.70
2019-03-13T00:21:51.291Z,8.70
2019-03-13T00:24:12.512Z,8.60
2019-03-13T00:26:33.937Z,8.40
2019-03-13T00:28:55.126Z,8.40
2019-03-13T00:31:17.452Z,8.40
2019-03-13T00:33:38.725Z,8.30
2019-03-13T00:36:01.033Z,8.30
2019-03-13T00:38:22.234Z,8.10
2019-03-13T00:40:43.444Z,8.00
2019-03-13T00:43:04.625Z,7.90
2019-03-13T00:45:25.867Z,7.90
2019-03-13T00:47:47.051Z,7.90
2019-03-13T00:50:21.809Z,7.80
2019-03-13T00:52:43.218Z,7.80
2019-03-13T00:55:05.693Z,7.70
2019-03-13T00:57:27.273Z,7.70
2019-03-13T00:59:48.585Z,7.70
2019-03-13T01:04:56.119Z,7.60
2019-03-13T01:07:17.445Z,7.60
2019-03-13T01:09:38.642Z,7.70
2019-03-13T01:11:59.856Z,7.60
2019-03-13T01:14:21.341Z,7.60
2019-03-13T01:16:42.661Z,7.70
2019-03-13T01:19:23.724Z,7.60
2019-03-13T01:21:44.937Z,7.60
2019-03-13T01:24:06.121Z,7.50
2019-03-13T01:26:27.350Z,7.50
2019-03-13T01:28:48.650Z,7.40
2019-03-13T01:31:11.953Z,7.30
2019-03-13T01:33:33.133Z,7.30
2019-03-13T01:35:56.236Z,7.20
2019-03-13T01:38:17.435Z,7.20
2019-03-13T01:40:38.759Z,7.10
2019-03-13T01:43:00.274Z,7.10
2019-03-13T01:45:21.785Z,7.00
2019-03-13T01:47:42.998Z,7.00
2019-03-13T01:50:07.511Z,6.90
2019-03-13T01:52:32.038Z,6.90
2019-03-13T01:54:52.165Z,6.90
2019-03-13T01:57:13.369Z,6.90
2019-03-13T01:59:34.584Z,6.90
2019-03-13T02:01:55.789Z,6.90
2019-03-13T02:04:16.996Z,6.90
2019-03-13T02:06:38.200Z,7.00
2019-03-13T02:08:59.425Z,7.10
2019-03-13T02:11:20.606Z,7.10
2019-03-13T02:13:41.813Z,7.10
2019-03-13T02:16:03.122Z,7.10
2019-03-13T02:18:24.325Z,7.20
2019-03-13T02:20:45.533Z,7.20
2019-03-13T02:23:06.733Z,7.10
2019-03-13T02:25:27.942Z,7.10
2019-03-13T02:27:49.137Z,7.10
2019-03-13T02:30:15.419Z,6.90
2019-03-13T02:32:36.729Z,6.80
2019-03-13T02:34:57.922Z,6.80
2019-03-13T02:37:19.266Z,6.70
2019-03-13T02:39:40.770Z,6.70
2019-03-13T02:42:01.965Z,6.70
2019-03-13T02:44:24.363Z,6.70
2019-03-13T02:46:45.571Z,6.70
2019-03-13T02:49:06.770Z,6.60
2019-03-13T02:51:28.039Z,6.60
2019-03-13T02:53:49.225Z,6.50
2019-03-13T02:56:10.414Z,6.50
2019-03-13T02:58:31.626Z,6.60
2019-03-13T03:00:54.741Z,6.60
2019-03-13T03:03:20.820Z,6.60
2019-03-13T03:05:42.179Z,6.60
2019-03-13T03:08:03.379Z,6.60
2019-03-13T03:10:24.576Z,6.70
2019-03-13T03:12:45.769Z,6.60
2019-03-13T03:15:12.373Z,6.60
2019-03-13T03:17:33.691Z,6.60
2019-03-13T03:19:54.886Z,6.60
2019-03-13T03:22:16.197Z,6.60
2019-03-13T03:24:37.431Z,6.70
2019-03-13T03:26:58.632Z,6.70
2019-03-13T03:29:19.837Z,6.70
2019-03-13T03:31:41.343Z,6.70
2019-03-13T03:34:02.979Z,6.70
2019-03-13T03:36:24.249Z,6.70
2019-03-13T03:38:45.466Z,6.70
2019-03-13T03:41:07.088Z,6.70
2019-03-13T03:43:40.331Z,6.80
2019-03-13T03:45:51.382Z,6.80
2019-03-13T03:48:12.591Z,6.80
2019-03-13T03:50:33.793Z,6.90
2019-03-13T03:52:54.989Z,6.90
2019-03-13T03:55:16.199Z,6.90
2019-03-13T03:57:41.393Z,6.80
2019-03-13T04:00:12.466Z,6.80
2019-03-13T04:02:33.856Z,6.70
2019-03-13T04:04:55.064Z,6.60
2019-03-13T04:07:16.244Z,6.60
2019-03-13T04:09:38.461Z,6.50
2019-03-13T04:12:01.633Z,6.40
2019-03-13T04:14:22.858Z,6.40
2019-03-13T04:16:44.056Z,6.40
2019-03-13T04:19:05.261Z,6.40
2019-03-13T04:21:26.478Z,6.40
2019-03-13T04:23:47.690Z,6.40
2019-03-13T04:26:12.439Z,6.40
2019-03-13T04:28:32.291Z,6.40
2019-03-13T04:30:53.473Z,6.40
2019-03-13T04:33:14.678Z,6.40
2019-03-13T04:35:35.867Z,6.40
2019-03-13T04:37:57.065Z,6.40
2019-03-13T04:40:19.118Z,6.30
2019-03-13T04:42:40.336Z,6.40
2019-03-13T04:45:01.583Z,6.40
2019-03-13T04:47:25.062Z,6.50
2019-03-13T04:49:45.874Z,6.40
2019-03-13T04:52:07.393Z,6.50
2019-03-13T04:54:28.603Z,6.50
2019-03-13T04:56:49.802Z,6.50
2019-03-13T04:59:11.006Z,6.50
2019-03-13T05:01:32.210Z,6.50
2019-03-13T05:03:53.409Z,6.50
2019-03-13T05:06:17.491Z,6.60
2019-03-13T05:08:45.406Z,6.60
2019-03-13T05:11:04.528Z,6.60
2019-03-13T05:13:25.717Z,6.60
2019-03-13T05:15:46.947Z,6.60
2019-03-13T05:18:08.128Z,6.60
2019-03-13T05:20:29.331Z,6.60
2019-03-13T05:22:50.758Z,6.60
2019-03-13T05:25:12.034Z,6.60
2019-03-13T05:27:33.223Z,6.60
2019-03-13T05:29:54.420Z,6.60
2019-03-13T05:32:15.610Z,6.60
2019-03-13T05:34:36.813Z,6.70
2019-03-13T05:36:59.305Z,6.70
2019-03-13T05:39:20.517Z,6.70
2019-03-13T05:41:41.708Z,6.60
2019-03-13T05:44:03.204Z,6.60
2019-03-13T05:46:24.544Z,6.60
2019-03-13T05:48:45.736Z,6.50
2019-03-13T05:51:06.979Z,6.50
2019-03-13T05:53:28.180Z,6.50
2019-03-13T05:55:49.382Z,6.50
2019-03-13T05:58:10.568Z,6.60
2019-03-13T06:00:31.774Z,6.60
2019-03-13T06:02:52.977Z,6.60
2019-03-13T06:05:14.299Z,6.60
2019-03-13T06:07:35.558Z,6.60
2019-03-13T06:09:56.818Z,6.60
2019-03-13T06:12:18.026Z,6.70
2019-03-13T06:14:39.304Z,6.50
2019-03-13T06:17:00.582Z,6.50
2019-03-13T06:19:22.024Z,6.50
2019-03-13T06:21:43.339Z,6.50
2019-03-13T06:24:04.610Z,6.40
2019-03-13T06:26:25.852Z,6.40
2019-03-13T06:28:47.078Z,6.40
2019-03-13T06:31:08.413Z,6.50
2019-03-13T06:33:29.677Z,6.60
2019-03-13T06:35:51.028Z,6.60
2019-03-13T06:38:12.269Z,6.60
2019-03-13T06:40:33.513Z,6.60
2019-03-13T06:42:54.700Z,6.50
2019-03-13T06:45:16.984Z,6.60
2019-03-13T06:47:38.191Z,6.60
2019-03-13T06:49:59.376Z,6.80
2019-03-13T06:52:20.687Z,7.00
2019-03-13T06:54:41.905Z,7.00
2019-03-13T06:57:04.202Z,6.90
2019-03-13T06:59:27.349Z,6.90
2019-03-13T07:01:56.334Z,6.90
2019-03-13T07:04:22.227Z,6.90
2019-03-13T07:06:45.317Z,6.90
2019-03-13T07:09:08.557Z,6.90
2019-03-13T07:11:43.960Z,6.90
2019-03-13T07:14:16.178Z,7.00
2019-03-13T07:16:54.375Z,7.10
2019-03-13T07:19:34.590Z,7.20
2019-03-13T07:21:57.848Z,7.30
2019-03-13T07:24:23.717Z,7.40
2019-03-13T07:27:03.722Z,7.60
2019-03-13T07:29:27.246Z,7.50
2019-03-13T07:31:56.274Z,7.70
2019-03-13T07:34:19.459Z,7.60
2019-03-13T07:36:57.329Z,7.60
2019-03-13T07:39:20.460Z,7.50
2019-03-13T07:41:43.591Z,7.50
2019-03-13T07:44:12.297Z,7.30
2019-03-13T07:46:38.197Z,7.40
2019-03-13T07:49:10.361Z,7.40
2019-03-13T07:51:33.589Z,7.60
2019-03-13T07:53:56.757Z,8.00
2019-03-13T07:56:24.507Z,8.10
2019-03-13T07:58:47.622Z,8.20
2019-03-13T08:01:13.616Z,8.40
2019-03-13T08:03:36.711Z,8.40
2019-03-13T08:05:59.832Z,8.30
2019-03-13T08:08:35.174Z,8.30
2019-03-13T08:11:16.197Z,8.30
2019-03-13T08:13:39.357Z,8.50
2019-03-13T08:16:20.551Z,8.50
2019-03-13T08:18:55.713Z,8.30
2019-03-13T08:21:18.830Z,8.50
2019-03-13T08:23:50.549Z,8.10
2019-03-13T08:26:33.249Z,8.10
2019-03-13T08:28:56.346Z,8.20
2019-03-13T08:31:31.649Z,8.20
2019-03-13T08:34:11.659Z,8.30
2019-03-13T08:36:53.194Z,8.60
2019-03-13T08:39:19.350Z,9.00
2019-03-13T08:41:45.238Z,9.50
2019-03-13T08:44:25.133Z,9.50
2019-03-13T08:46:51.170Z,9.60
2019-03-13T08:49:31.017Z,9.70
2019-03-13T08:51:57.174Z,9.70
2019-03-13T08:54:29.288Z,9.60
2019-03-13T08:56:52.482Z,9.50
2019-03-13T08:59:23.557Z,9.30
2019-03-13T09:01:55.877Z,9.20
2019-03-13T09:04:33.872Z,9.10
2019-03-13T09:06:59.778Z,9.10
2019-03-13T09:09:31.838Z,9.00
2019-03-13T09:11:57.554Z,8.70
2019-03-13T09:14:26.869Z,8.70
2019-03-13T09:17:06.594Z,8.90
2019-03-13T09:19:29.710Z,8.90
2019-03-13T09:21:55.698Z,9.10
2019-03-13T09:24:18.827Z,9.10
2019-03-13T09:27:00.007Z,9.00
2019-03-13T09:29:40.915Z,9.30
2019-03-13T09:32:06.638Z,9.50
2019-03-13T09:34:32.420Z,9.70
2019-03-13T09:37:04.678Z,9.80
2019-03-13T09:39:27.801Z,9.80
2019-03-13T09:41:56.962Z,9.80
2019-03-13T09:44:38.071Z,9.80
2019-03-13T09:47:01.205Z,10.00
2019-03-13T09:49:30.122Z,10.20
2019-03-13T09:51:56.430Z,10.00
2019-03-13T09:54:25.423Z,9.70
2019-03-13T09:56:57.786Z,9.70
2019-03-13T09:59:21.158Z,9.60
2019-03-13T10:02:02.659Z,9.60
2019-03-13T10:04:28.672Z,9.60
2019-03-13T10:07:07.071Z,9.70
2019-03-13T10:09:34.156Z,9.70
2019-03-13T10:11:57.329Z,9.80
2019-03-13T10:14:20.438Z,9.80
2019-03-13T10:16:52.368Z,9.80
2019-03-13T10:19:21.447Z,9.70
2019-03-13T10:21:44.642Z,9.60
2019-03-13T10:24:10.323Z,9.60
2019-03-13T10:26:36.238Z,9.50
2019-03-13T10:28:59.331Z,9.60
2019-03-13T10:31:25.184Z,9.80
2019-03-13T10:33:51.477Z,9.80
2019-03-13T10:36:23.397Z,10.00
2019-03-13T10:38:47.789Z,10.30
2019-03-13T10:41:13.653Z,10.20
2019-03-13T10:43:39.525Z,10.10
2019-03-13T10:46:14.693Z,10.40
2019-03-13T10:48:56.323Z,10.90
2019-03-13T10:51:35.850Z,10.90
2019-03-13T10:54:13.925Z,10.90
2019-03-13T10:56:39.577Z,11.00
2019-03-13T10:59:15.094Z,10.80
2019-03-13T11:01:38.198Z,10.70
2019-03-13T11:04:18.331Z,10.70
2019-03-13T11:06:55.220Z,10.60
2019-03-13T11:09:27.737Z,10.60
2019-03-13T11:11:53.719Z,10.30
2019-03-13T11:14:19.638Z,10.50
2019-03-13T11:16:42.729Z,10.90
2019-03-13T11:19:11.829Z,11.30
2019-03-13T11:21:34.929Z,11.10
2019-03-13T11:24:06.721Z,10.80
2019-03-13T11:26:35.589Z,10.60
2019-03-13T11:29:01.476Z,10.60
2019-03-13T11:31:36.427Z,10.80
2019-03-13T11:34:02.254Z,10.30
2019-03-13T11:36:27.853Z,10.10
2019-03-13T11:38:52.056Z,10.40
2019-03-13T11:41:32.142Z,10.20
2019-03-13T11:44:01.054Z,10.10
2019-03-13T11:46:33.142Z,10.70
2019-03-13T11:49:13.093Z,11.00
2019-03-13T11:51:38.974Z,11.10
2019-03-13T11:54:10.798Z,10.60
2019-03-13T11:56:34.009Z,9.60
2019-03-13T11:59:29.453Z,9.90
2019-03-13T12:02:16.071Z,9.80
2019-03-13T12:04:57.008Z,10.10
2019-03-13T12:07:24.905Z,10.20
2019-03-13T12:09:51.143Z,9.90
2019-03-13T12:12:14.246Z,10.00
2019-03-13T12:14:39.445Z,10.20
2019-03-13T12:17:05.317Z,10.20
2019-03-13T12:19:34.343Z,10.40
2019-03-13T12:21:57.580Z,10.70
2019-03-13T12:24:29.309Z,10.90
2019-03-13T12:26:52.653Z,10.90
2019-03-13T12:29:32.398Z,10.70
2019-03-13T12:32:04.449Z,10.80
2019-03-13T12:34:30.353Z,10.80
2019-03-13T12:36:53.454Z,11.00
2019-03-13T12:39:16.566Z,11.40
2019-03-13T12:41:39.672Z,11.60
2019-03-13T12:44:08.897Z,11.80
2019-03-13T12:46:32.009Z,12.00
2019-03-13T12:49:04.321Z,11.80
2019-03-13T12:51:33.458Z,11.60
2019-03-13T12:54:05.714Z,11.70
2019-03-13T12:56:30.115Z,11.80
2019-03-13T13:01:45.411Z,11.80
2019-03-13T13:04:26.958Z,11.50
2019-03-13T13:07:06.945Z,11.20
2019-03-13T13:09:32.847Z,11.40
2019-03-13T13:11:56.017Z,11.20
2019-03-13T13:14:31.657Z,11.10
2019-03-13T13:16:55.178Z,11.40
2019-03-13T13:19:17.581Z,11.30
2019-03-13T13:21:38.800Z,11.60
2019-03-13T13:24:00.096Z,11.50
2019-03-13T13:26:21.396Z,11.30
2019-03-13T13:28:42.858Z,11.20
2019-03-13T13:31:04.149Z,11.20
2019-03-13T13:33:25.354Z,11.40
2019-03-13T13:35:46.570Z,11.40
2019-03-13T13:38:10.118Z,11.50
2019-03-13T13:40:30.860Z,11.40
2019-03-13T13:42:52.461Z,11.30
2019-03-13T13:45:33.294Z,11.20
2019-03-13T13:47:54.706Z,11.20
2019-03-13T13:50:16.190Z,11.50
2019-03-13T13:52:37.410Z,11.50
2019-03-13T13:54:58.635Z,11.50
2019-03-13T13:57:19.835Z,11.30
2019-03-13T13:59:41.023Z,11.00
2019-03-13T14:02:02.282Z,11.10
2019-03-13T14:04:23.530Z,11.20
2019-03-13T14:06:44.744Z,11.20
2019-03-13T14:09:05.931Z,10.90
2019-03-13T14:11:29.017Z,10.60
2019-03-13T14:13:50.217Z,10.70
2019-03-13T14:16:11.911Z,10.60
2019-03-13T14:18:34.312Z,10.70
2019-03-13T14:20:56.821Z,10.60
2019-03-13T14:23:18.031Z,10.60
2019-03-13T14:25:39.377Z,10.60
2019-03-13T14:28:00.583Z,10.50
2019-03-13T14:30:22.595Z,10.60
2019-03-13T14:32:43.802Z,10.60
2019-03-13T14:35:05.197Z,10.60
2019-03-13T14:37:26.394Z,10.60
2019-03-13T14:39:47.601Z,10.50
2019-03-13T14:42:10.237Z,10.50
2019-03-13T14:44:31.425Z,10.20
2019-03-13T14:46:52.675Z,10.30
2019-03-13T14:49:13.954Z,10.30
2019-03-13T14:51:35.158Z,10.40
2019-03-13T14:53:56.373Z,10.40
2019-03-13T14:56:17.565Z,10.40
2019-03-13T14:58:38.771Z,10.60
2019-03-13T15:00:59.989Z,10.50
2019-03-13T15:03:21.219Z,10.80
2019-03-13T15:05:42.510Z,10.80
2019-03-13T15:08:03.743Z,10.80
2019-03-13T15:10:25.002Z,10.90
2019-03-13T15:12:46.351Z,11.10
2019-03-13T15:15:14.181Z,11.30
2019-03-13T15:17:35.482Z,11.20
2019-03-13T15:19:56.677Z,10.90
2019-03-13T15:22:17.894Z,11.10
2019-03-13T15:24:39.103Z,11.00
2019-03-13T15:27:00.348Z,11.10
2019-03-13T15:29:21.663Z,11.00
2019-03-13T15:31:42.945Z,11.00
2019-03-13T15:34:04.156Z,11.00
2019-03-13T15:36:25.353Z,11.10
2019-03-13T15:38:46.566Z,11.10
2019-03-13T15:41:07.768Z,10.90
2019-03-13T15:43:29.074Z,11.00
2019-03-13T15:45:50.276Z,10.90
2019-03-13T15:48:11.506Z,10.90
2019-03-13T15:50:32.701Z,10.70
2019-03-13T15:52:53.938Z,10.50
2019-03-13T15:55:16.410Z,10.60
2019-03-13T15:57:37.716Z,10.60
2019-03-13T15:59:59.011Z,10.60
2019-03-13T16:02:20.197Z,10.50
2019-03-13T16:04:41.398Z,10.50
2019-03-13T16:07:02.753Z,10.40
2019-03-13T16:09:24.033Z,10.20
2019-03-13T16:11:45.232Z,10.50
2019-03-13T16:14:06.473Z,10.50
2019-03-13T16:16:28.885Z,10.50
2019-03-13T16:18:50.075Z,10.50
2019-03-13T16:21:11.282Z,10.50
2019-03-13T16:23:32.593Z,10.40
2019-03-13T16:25:53.833Z,10.30
2019-03-13T16:28:15.069Z,10.20
2019-03-13T16:30:50.341Z,10.10
2019-03-13T16:33:11.545Z,10.00
2019-03-13T16:35:32.766Z,10.10
2019-03-13T16:37:53.971Z,10.00
2019-03-13T16:40:16.874Z,10.00
2019-03-13T16:42:38.089Z,9.80
2019-03-13T16:44:59.298Z,9.70
2019-03-13T16:47:20.499Z,9.80
2019-03-13T16:49:41.705Z,9.70
2019-03-13T16:52:03.098Z,9.70
2019-03-13T16:54:24.316Z,9.60
2019-03-13T16:56:45.506Z,9.60
2019-03-13T16:59:06.749Z,9.60
2019-03-13T17:01:27.935Z,9.50
2019-03-13T17:03:49.141Z,9.40
2019-03-13T17:06:10.355Z,9.30
2019-03-13T17:08:31.572Z,9.30
2019-03-13T17:10:52.765Z,9.30
2019-03-13T17:13:13.979Z,9.30
2019-03-13T17:15:35.211Z,9.20
2019-03-13T17:17:56.503Z,9.20
2019-03-13T17:20:20.175Z,9.30
2019-03-13T17:22:43.334Z,9.20
2019-03-13T17:25:08.389Z,9.20
2019-03-13T17:27:30.085Z,9.20
2019-03-13T17:29:51.315Z,9.20
2019-03-13T17:32:13.663Z,9.10
2019-03-13T17:34:35.870Z,9.10
2019-03-13T17:36:57.377Z,9.00
2019-03-13T17:39:18.581Z,9.00
2019-03-13T17:41:39.772Z,9.00
2019-03-13T17:44:01.001Z,8.90
2019-03-13T17:46:22.185Z,8.90
2019-03-13T17:48:43.389Z,8.80
2019-03-13T17:51:04.705Z,8.80
2019-03-13T17:53:27.030Z,8.80
2019-03-13T17:55:50.894Z,8.70
2019-03-13T17:58:12.215Z,8.70
2019-03-13T18:00:40.247Z,8.70
2019-03-13T18:03:01.439Z,8.60
2019-03-13T18:05:22.744Z,8.60
2019-03-13T18:07:44.040Z,8.60
2019-03-13T18:10:09.093Z,8.60
2019-03-13T18:12:30.388Z,8.60
2019-03-13T18:14:51.949Z,8.50
2019-03-13T18:17:13.205Z,8.50
2019-03-13T18:19:34.413Z,8.50
2019-03-13T18:21:55.746Z,8.40
2019-03-13T18:24:17.045Z,8.40
2019-03-13T18:26:38.325Z,8.20
2019-03-13T18:28:59.613Z,8.10
2019-03-13T18:31:20.920Z,8.00
2019-03-13T18:33:42.143Z,7.90
2019-03-13T18:36:03.504Z,7.70
2019-03-13T18:38:24.741Z,7.80
2019-03-13T18:40:46.011Z,7.80
2019-03-13T18:43:08.726Z,7.80
2019-03-13T18:45:31.738Z,7.70
2019-03-13T18:47:53.037Z,7.80
2019-03-13T18:50:15.850Z,7.70
2019-03-13T18:52:37.322Z,7.80
2019-03-13T18:54:58.686Z,7.80
2019-03-13T18:57:19.921Z,7.80
2019-03-13T18:59:41.598Z,7.70
2019-03-13T19:02:04.083Z,7.70
2019-03-13T19:04:25.312Z,7.70
2019-03-13T19:06:46.774Z,7.70
2019-03-13T19:09:07.971Z,7.80
2019-03-13T19:11:31.087Z,7.70
2019-03-13T19:13:52.522Z,7.80
2019-03-13T19:16:13.732Z,7.80
2019-03-13T19:18:35.019Z,7.70
2019-03-13T19:20:58.624Z,7.80
2019-03-13T19:23:19.615Z,7.80
2019-03-13T19:25:42.224Z,7.80
2019-03-13T19:28:03.604Z,7.80
2019-03-13T19:30:37.550Z,7.80
2019-03-13T19:32:58.092Z,7.80
2019-03-13T19:35:19.539Z,7.90
2019-03-13T19:37:40.922Z,7.80
2019-03-13T19:40:02.427Z,7.80
2019-03-13T19:42:24.230Z,7.90
2019-03-13T19:44:46.481Z,7.90
2019-03-13T19:47:07.772Z,7.90
2019-03-13T19:49:28.953Z,7.90
2019-03-13T19:51:50.175Z,7.90
2019-03-13T19:54:11.413Z,7.90
2019-03-13T19:56:35.045Z,7.90
2019-03-13T19:58:56.208Z,7.90
2019-03-13T20:01:19.790Z,7.90
2019-03-13T20:03:54.167Z,7.90
2019-03-13T20:06:04.585Z,7.90
2019-03-13T20:08:25.992Z,7.90
2019-03-13T20:10:48.976Z,7.90
2019-03-13T20:13:10.291Z,7.90
2019-03-13T20:15:33.480Z,7.90
2019-03-13T20:17:54.811Z,7.90
2019-03-13T20:20:17.705Z,7.80
2019-03-13T20:22:38.917Z,7.70
2019-03-13T20:25:00.390Z,7.70
2019-03-13T20:27:21.742Z,7.60
2019-03-13T20:29:42.941Z,7.50
2019-03-13T20:32:04.151Z,7.50
2019-03-13T20:34:25.739Z,7.40
2019-03-13T20:36:47.125Z,7.30
2019-03-13T20:39:08.651Z,7.20
2019-03-13T20:41:30.338Z,7.20
2019-03-13T20:43:51.733Z,7.20
2019-03-13T20:46:12.990Z,7.10
2019-03-13T20:48:34.292Z,7.10
2019-03-13T20:50:55.810Z,7.10
2019-03-13T20:53:17.094Z,7.10
2019-03-13T20:55:39.758Z,6.90
2019-03-13T20:58:01.069Z,7.00
2019-03-13T21:00:26.192Z,7.00
2019-03-13T21:02:47.636Z,6.90
2019-03-13T21:05:09.101Z,6.80
2019-03-13T21:07:30.395Z,6.70
2019-03-13T21:09:51.655Z,6.80
2019-03-13T21:12:12.967Z,6.80
2019-03-13T21:14:35.871Z,6.70
2019-03-13T21:16:57.441Z,6.80
2019-03-13T21:19:18.755Z,6.80
2019-03-13T21:21:41.242Z,6.80
2019-03-13T21:24:02.749Z,6.60
2019-03-13T21:26:24.241Z,6.80
2019-03-13T21:28:45.481Z,6.80
2019-03-13T21:31:06.769Z,6.80
2019-03-13T21:33:28.153Z,6.80
2019-03-13T21:35:49.453Z,6.70
2019-03-13T21:38:13.062Z,6.70
2019-03-13T21:40:33.950Z,6.70
2019-03-13T21:42:55.677Z,6.70
2019-03-13T21:45:22.412Z,6.60
2019-03-13T21:47:40.378Z,6.60
2019-03-13T21:50:02.882Z,6.60
2019-03-13T21:52:24.388Z,6.60
2019-03-13T21:54:45.595Z,6.60
2019-03-13T21:57:07.240Z,6.60
2019-03-13T21:59:28.516Z,6.60
2019-03-13T22:01:49.769Z,6.50
2019-03-13T22:04:23.275Z,6.40
2019-03-13T22:06:34.390Z,6.40
2019-03-13T22:08:55.662Z,6.50
2019-03-13T22:11:17.109Z,6.50
2019-03-13T22:13:38.496Z,6.50
2019-03-13T22:15:59.933Z,6.50
2019-03-13T22:18:22.024Z,6.50
2019-03-13T22:20:43.221Z,6.50
2019-03-13T22:23:04.591Z,6.60
2019-03-13T22:25:25.857Z,6.50
2019-03-13T22:27:47.733Z,6.50
2019-03-13T22:30:18.138Z,6.60
2019-03-13T22:32:39.352Z,6.50
2019-03-13T22:35:00.713Z,6.50
2019-03-13T22:37:22.359Z,6.50
2019-03-13T22:39:43.601Z,6.50
2019-03-13T22:42:04.799Z,6.50
2019-03-13T22:44:26.106Z,6.50
2019-03-13T22:46:50.200Z,6.50
2019-03-13T22:49:10.875Z,6.60
2019-03-13T22:51:32.110Z,6.50
2019-03-13T22:53:53.360Z,6.50
2019-03-13T22:56:14.739Z,6.50
2019-03-13T22:58:36.069Z,6.50
2019-03-13T23:01:02.978Z,6.50
2019-03-13T23:03:27.357Z,6.50
2019-03-13T23:05:48.943Z,6.40
2019-03-13T23:08:10.241Z,6.50
2019-03-13T23:10:33.387Z,6.50
2019-03-13T23:12:54.699Z,6.50
2019-03-13T23:15:16.313Z,6.50
2019-03-13T23:17:37.697Z,6.50
2019-03-13T23:19:58.911Z,6.50
2019-03-13T23:22:20.112Z,6.40
2019-03-13T23:24:42.514Z,6.30
2019-03-13T23:27:03.847Z,6.30
2019-03-13T23:29:25.146Z,6.20
2019-03-13T23:31:46.666Z,6.30
2019-03-13T23:34:08.062Z,6.30
2019-03-13T23:36:29.551Z,6.30
2019-03-13T23:38:50.764Z,6.30
2019-03-13T23:41:11.955Z,6.30
2019-03-13T23:43:33.173Z,6.20
2019-03-13T23:45:54.362Z,6.20
2019-03-13T23:48:15.589Z,6.20
2019-03-13T23:50:36.777Z,6.20
2019-03-13T23:52:58.075Z,6.10
2019-03-13T23:55:20.296Z,6.00
2019-03-13T23:57:41.682Z,6.00
